sensor_id;sensor_type;location;lat;lon;timestamp;P1;durP1;ratioP1;P2;durP2;ratioP2
20593;SDS011;10455;48.732;10.266;2023-02-15T00:01:09;51.27;;;33.47;;
20593;SDS011;10455;48.732;10.266;2023-02-15T00:06:12;53.90;;;32.80;;
20593;SDS011;10455;48.732;10.266;2023-02-15T00:11:14;59.93;;;34.87;;
20593;SDS011;10455;48.732;10.266;2023-02-15T00:16:38;58.80;;;38.00;;
20593;SDS011;10455;48.732;10.266;2023-02-15T00:21:41;58.03;;;33.40;;
20593;SDS011;10455;48.732;10.266;2023-02-15T00:26:44;54.07;;;34.50;;
20593;SDS011;10455;48.732;10.266;2023-02-15T00:31:48;73.47;;;36.03;;
20593;SDS011;10455;48.732;10.266;2023-02-15T00:36:50;76.60;;;39.33;;
20593;SDS011;10455;48.732;10.266;2023-02-15T00:41:52;69.77;;;35.33;;
20593;SDS011;10455;48.732;10.266;2023-02-15T00:46:55;93.07;;;36.73;;
20593;SDS011;10455;48.732;10.266;2023-02-15T00:51:57;98.80;;;36.27;;
20593;SDS011;10455;48.732;10.266;2023-02-15T00:56:59;140.90;;;37.83;;
20593;SDS011;10455;48.732;10.266;2023-02-15T01:02:03;72.37;;;36.50;;
20593;SDS011;10455;48.732;10.266;2023-02-15T01:07:05;68.80;;;36.77;;
20593;SDS011;10455;48.732;10.266;2023-02-15T01:12:06;55.70;;;34.60;;
20593;SDS011;10455;48.732;10.266;2023-02-15T01:17:10;47.60;;;32.20;;
20593;SDS011;10455;48.732;10.266;2023-02-15T01:22:12;41.80;;;29.77;;
20593;SDS011;10455;48.732;10.266;2023-02-15T01:27:13;50.40;;;32.37;;
20593;SDS011;10455;48.732;10.266;2023-02-15T01:32:17;52.37;;;31.63;;
20593;SDS011;10455;48.732;10.266;2023-02-15T01:37:19;69.67;;;36.20;;
20593;SDS011;10455;48.732;10.266;2023-02-15T01:42:21;93.77;;;39.23;;
20593;SDS011;10455;48.732;10.266;2023-02-15T01:47:26;44.20;;;30.80;;
20593;SDS011;10455;48.732;10.266;2023-02-15T01:52:34;57.97;;;32.77;;
20593;SDS011;10455;48.732;10.266;2023-02-15T01:57:40;71.33;;;34.17;;
20593;SDS011;10455;48.732;10.266;2023-02-15T02:02:44;58.00;;;32.00;;
20593;SDS011;10455;48.732;10.266;2023-02-15T02:07:50;67.43;;;32.80;;
20593;SDS011;10455;48.732;10.266;2023-02-15T02:12:54;51.17;;;33.13;;
20593;SDS011;10455;48.732;10.266;2023-02-15T02:18:04;82.60;;;34.30;;
20593;SDS011;10455;48.732;10.266;2023-02-15T02:23:19;55.27;;;34.10;;
20593;SDS011;10455;48.732;10.266;2023-02-15T02:34:10;66.37;;;34.40;;
20593;SDS011;10455;48.732;10.266;2023-02-15T02:39:22;93.40;;;38.13;;
20593;SDS011;10455;48.732;10.266;2023-02-15T02:44:33;125.13;;;43.60;;
20593;SDS011;10455;48.732;10.266;2023-02-15T02:49:44;57.53;;;34.07;;
20593;SDS011;10455;48.732;10.266;2023-02-15T02:54:46;71.83;;;35.17;;
20593;SDS011;10455;48.732;10.266;2023-02-15T02:59:48;60.83;;;35.63;;
20593;SDS011;10455;48.732;10.266;2023-02-15T03:04:53;61.27;;;35.53;;
20593;SDS011;10455;48.732;10.266;2023-02-15T03:10:04;62.60;;;34.43;;
20593;SDS011;10455;48.732;10.266;2023-02-15T03:15:08;75.30;;;36.40;;
20593;SDS011;10455;48.732;10.266;2023-02-15T03:20:18;55.10;;;32.30;;
20593;SDS011;10455;48.732;10.266;2023-02-15T03:25:26;70.47;;;35.43;;
20593;SDS011;10455;48.732;10.266;2023-02-15T03:30:33;50.70;;;33.67;;
20593;SDS011;10455;48.732;10.266;2023-02-15T03:35:39;52.03;;;33.40;;
20593;SDS011;10455;48.732;10.266;2023-02-15T03:40:46;59.63;;;35.73;;
20593;SDS011;10455;48.732;10.266;2023-02-15T03:46:08;57.60;;;35.70;;
20593;SDS011;10455;48.732;10.266;2023-02-15T03:51:17;75.07;;;36.20;;
20593;SDS011;10455;48.732;10.266;2023-02-15T03:56:34;74.17;;;36.20;;
20593;SDS011;10455;48.732;10.266;2023-02-15T04:01:38;61.17;;;34.07;;
20593;SDS011;10455;48.732;10.266;2023-02-15T04:07:00;99.47;;;35.13;;
20593;SDS011;10455;48.732;10.266;2023-02-15T04:12:02;78.47;;;34.13;;
20593;SDS011;10455;48.732;10.266;2023-02-15T04:17:05;103.90;;;40.73;;
20593;SDS011;10455;48.732;10.266;2023-02-15T04:22:08;87.37;;;37.93;;
20593;SDS011;10455;48.732;10.266;2023-02-15T04:27:28;72.90;;;33.57;;
20593;SDS011;10455;48.732;10.266;2023-02-15T04:32:30;76.73;;;36.10;;
20593;SDS011;10455;48.732;10.266;2023-02-15T04:37:33;87.63;;;35.43;;
20593;SDS011;10455;48.732;10.266;2023-02-15T04:42:35;55.57;;;31.77;;
20593;SDS011;10455;48.732;10.266;2023-02-15T04:47:37;51.83;;;30.87;;
20593;SDS011;10455;48.732;10.266;2023-02-15T04:52:40;50.77;;;32.03;;
20593;SDS011;10455;48.732;10.266;2023-02-15T04:57:42;65.50;;;31.43;;
20593;SDS011;10455;48.732;10.266;2023-02-15T05:02:44;43.37;;;28.07;;
20593;SDS011;10455;48.732;10.266;2023-02-15T05:07:47;38.80;;;26.10;;
20593;SDS011;10455;48.732;10.266;2023-02-15T05:12:49;38.90;;;27.07;;
20593;SDS011;10455;48.732;10.266;2023-02-15T05:17:51;67.03;;;26.13;;
20593;SDS011;10455;48.732;10.266;2023-02-15T05:22:54;58.17;;;31.97;;
20593;SDS011;10455;48.732;10.266;2023-02-15T05:27:56;50.50;;;27.93;;
20593;SDS011;10455;48.732;10.266;2023-02-15T05:33:15;46.13;;;29.40;;
20593;SDS011;10455;48.732;10.266;2023-02-15T05:38:19;76.97;;;30.47;;
20593;SDS011;10455;48.732;10.266;2023-02-15T05:43:21;44.03;;;27.93;;
20593;SDS011;10455;48.732;10.266;2023-02-15T05:48:25;72.37;;;31.23;;
20593;SDS011;10455;48.732;10.266;2023-02-15T05:53:29;41.87;;;26.90;;
20593;SDS011;10455;48.732;10.266;2023-02-15T05:58:33;49.30;;;30.57;;
20593;SDS011;10455;48.732;10.266;2023-02-15T06:03:36;41.70;;;28.43;;
20593;SDS011;10455;48.732;10.266;2023-02-15T06:08:40;33.40;;;24.57;;
20593;SDS011;10455;48.732;10.266;2023-02-15T06:13:41;37.13;;;26.07;;
20593;SDS011;10455;48.732;10.266;2023-02-15T06:18:43;36.63;;;26.73;;
20593;SDS011;10455;48.732;10.266;2023-02-15T06:23:47;42.77;;;28.67;;
20593;SDS011;10455;48.732;10.266;2023-02-15T06:28:49;46.37;;;26.70;;
20593;SDS011;10455;48.732;10.266;2023-02-15T06:33:50;54.63;;;30.37;;
20593;SDS011;10455;48.732;10.266;2023-02-15T06:38:54;65.47;;;33.87;;
20593;SDS011;10455;48.732;10.266;2023-02-15T06:43:56;46.97;;;28.87;;
20593;SDS011;10455;48.732;10.266;2023-02-15T06:48:58;60.53;;;30.73;;
20593;SDS011;10455;48.732;10.266;2023-02-15T06:54:01;62.57;;;30.23;;
20593;SDS011;10455;48.732;10.266;2023-02-15T06:59:03;42.97;;;26.13;;
20593;SDS011;10455;48.732;10.266;2023-02-15T07:04:05;58.50;;;27.37;;
20593;SDS011;10455;48.732;10.266;2023-02-15T07:09:08;39.70;;;26.07;;
20593;SDS011;10455;48.732;10.266;2023-02-15T07:14:10;73.03;;;28.70;;
20593;SDS011;10455;48.732;10.266;2023-02-15T07:19:12;63.83;;;28.77;;
20593;SDS011;10455;48.732;10.266;2023-02-15T07:24:16;46.23;;;23.87;;
20593;SDS011;10455;48.732;10.266;2023-02-15T07:29:18;40.87;;;25.57;;
20593;SDS011;10455;48.732;10.266;2023-02-15T07:34:19;34.90;;;24.47;;
20593;SDS011;10455;48.732;10.266;2023-02-15T07:39:23;44.97;;;24.43;;
20593;SDS011;10455;48.732;10.266;2023-02-15T07:44:25;48.53;;;23.53;;
20593;SDS011;10455;48.732;10.266;2023-02-15T07:49:27;66.07;;;24.07;;
20593;SDS011;10455;48.732;10.266;2023-02-15T07:54:30;47.53;;;22.40;;
20593;SDS011;10455;48.732;10.266;2023-02-15T07:59:32;38.97;;;23.53;;
20593;SDS011;10455;48.732;10.266;2023-02-15T08:04:34;51.73;;;22.10;;
20593;SDS011;10455;48.732;10.266;2023-02-15T08:09:37;80.23;;;26.07;;
20593;SDS011;10455;48.732;10.266;2023-02-15T08:14:39;59.37;;;21.53;;
20593;SDS011;10455;48.732;10.266;2023-02-15T08:19:41;104.37;;;25.30;;
20593;SDS011;10455;48.732;10.266;2023-02-15T08:24:44;66.63;;;22.13;;
20593;SDS011;10455;48.732;10.266;2023-02-15T08:29:47;334.60;;;44.90;;
20593;SDS011;10455;48.732;10.266;2023-02-15T08:34:49;45.97;;;18.47;;
20593;SDS011;10455;48.732;10.266;2023-02-15T08:39:52;215.77;;;30.80;;
20593;SDS011;10455;48.732;10.266;2023-02-15T08:44:54;23.27;;;17.20;;
20593;SDS011;10455;48.732;10.266;2023-02-15T08:49:56;25.10;;;15.30;;
20593;SDS011;10455;48.732;10.266;2023-02-15T08:54:59;17.07;;;15.27;;
20593;SDS011;10455;48.732;10.266;2023-02-15T09:00:02;16.43;;;14.73;;
20593;SDS011;10455;48.732;10.266;2023-02-15T09:05:06;16.10;;;14.40;;
20593;SDS011;10455;48.732;10.266;2023-02-15T09:10:10;14.83;;;13.27;;
20593;SDS011;10455;48.732;10.266;2023-02-15T09:15:12;16.00;;;14.30;;
20593;SDS011;10455;48.732;10.266;2023-02-15T09:20:14;14.10;;;12.60;;
20593;SDS011;10455;48.732;10.266;2023-02-15T09:25:17;16.37;;;14.63;;
20593;SDS011;10455;48.732;10.266;2023-02-15T09:30:19;15.03;;;13.43;;
20593;SDS011;10455;48.732;10.266;2023-02-15T09:35:21;13.53;;;12.13;;
20593;SDS011;10455;48.732;10.266;2023-02-15T09:40:25;13.57;;;12.27;;
20593;SDS011;10455;48.732;10.266;2023-02-15T09:45:37;12.57;;;11.37;;
20593;SDS011;10455;48.732;10.266;2023-02-15T09:51:02;13.03;;;11.73;;
20593;SDS011;10455;48.732;10.266;2023-02-15T09:56:36;13.27;;;11.97;;
20593;SDS011;10455;48.732;10.266;2023-02-15T10:01:44;13.60;;;12.20;;
20593;SDS011;10455;48.732;10.266;2023-02-15T10:06:57;12.45;;;11.25;;
20593;SDS011;10455;48.732;10.266;2023-02-15T10:12:15;12.98;;;11.75;;
20593;SDS011;10455;48.732;10.266;2023-02-15T10:17:42;13.02;;;11.82;;
20593;SDS011;10455;48.732;10.266;2023-02-15T10:23:00;13.57;;;12.38;;
20593;SDS011;10455;48.732;10.266;2023-02-15T10:28:13;13.07;;;11.97;;
20593;SDS011;10455;48.732;10.266;2023-02-15T10:33:24;14.50;;;13.10;;
20593;SDS011;10455;48.732;10.266;2023-02-15T10:38:39;13.53;;;12.23;;
20593;SDS011;10455;48.732;10.266;2023-02-15T10:43:49;16.37;;;14.67;;
20593;SDS011;10455;48.732;10.266;2023-02-15T10:49:07;15.47;;;13.87;;
20593;SDS011;10455;48.732;10.266;2023-02-15T10:54:23;14.50;;;13.10;;
20593;SDS011;10455;48.732;10.266;2023-02-15T10:59:40;15.30;;;13.90;;
20593;SDS011;10455;48.732;10.266;2023-02-15T11:05:02;15.20;;;12.77;;
20593;SDS011;10455;48.732;10.266;2023-02-15T11:10:23;15.10;;;13.50;;
20593;SDS011;10455;48.732;10.266;2023-02-15T11:15:32;15.03;;;13.53;;
20593;SDS011;10455;48.732;10.266;2023-02-15T11:20:38;14.17;;;12.77;;
20593;SDS011;10455;48.732;10.266;2023-02-15T11:25:47;14.63;;;13.13;;
20593;SDS011;10455;48.732;10.266;2023-02-15T11:30:57;14.93;;;13.50;;
20593;SDS011;10455;48.732;10.266;2023-02-15T11:36:04;15.53;;;14.03;;
20593;SDS011;10455;48.732;10.266;2023-02-15T11:41:09;14.43;;;13.13;;
20593;SDS011;10455;48.732;10.266;2023-02-15T11:46:14;14.53;;;13.23;;
20593;SDS011;10455;48.732;10.266;2023-02-15T11:51:17;16.83;;;12.77;;
20593;SDS011;10455;48.732;10.266;2023-02-15T11:56:22;15.13;;;13.73;;
20593;SDS011;10455;48.732;10.266;2023-02-15T12:01:29;16.17;;;14.47;;
20593;SDS011;10455;48.732;10.266;2023-02-15T12:06:34;14.87;;;13.47;;
20593;SDS011;10455;48.732;10.266;2023-02-15T12:11:40;14.63;;;13.23;;
20593;SDS011;10455;48.732;10.266;2023-02-15T12:16:44;16.88;;;15.13;;
20593;SDS011;10455;48.732;10.266;2023-02-15T12:21:49;15.70;;;14.17;;
20593;SDS011;10455;48.732;10.266;2023-02-15T12:26:57;17.07;;;15.27;;
20593;SDS011;10455;48.732;10.266;2023-02-15T12:32:03;19.00;;;17.00;;
20593;SDS011;10455;48.732;10.266;2023-02-15T12:37:09;18.33;;;16.33;;
20593;SDS011;10455;48.732;10.266;2023-02-15T12:42:16;20.30;;;17.07;;
20593;SDS011;10455;48.732;10.266;2023-02-15T12:47:20;18.40;;;16.50;;
20593;SDS011;10455;48.732;10.266;2023-02-15T12:52:24;18.63;;;16.73;;
20593;SDS011;10455;48.732;10.266;2023-02-15T12:57:27;19.92;;;17.35;;
20593;SDS011;10455;48.732;10.266;2023-02-15T13:02:34;18.38;;;16.52;;
20593;SDS011;10455;48.732;10.266;2023-02-15T13:07:44;20.70;;;17.02;;
20593;SDS011;10455;48.732;10.266;2023-02-15T13:12:47;19.92;;;17.83;;
20593;SDS011;10455;48.732;10.266;2023-02-15T13:17:53;20.33;;;18.33;;
20593;SDS011;10455;48.732;10.266;2023-02-15T13:22:58;18.00;;;16.25;;
20593;SDS011;10455;48.732;10.266;2023-02-15T13:28:04;19.25;;;17.25;;
20593;SDS011;10455;48.732;10.266;2023-02-15T13:33:11;18.58;;;16.70;;
20593;SDS011;10455;48.732;10.266;2023-02-15T13:38:39;19.45;;;17.50;;
20593;SDS011;10455;48.732;10.266;2023-02-15T13:43:57;20.30;;;18.23;;
20593;SDS011;10455;48.732;10.266;2023-02-15T13:49:09;18.13;;;16.33;;
20593;SDS011;10455;48.732;10.266;2023-02-15T13:59:52;17.48;;;15.88;;
20593;SDS011;10455;48.732;10.266;2023-02-15T14:05:15;19.15;;;16.38;;
20593;SDS011;10455;48.732;10.266;2023-02-15T14:10:34;18.20;;;16.45;;
20593;SDS011;10455;48.732;10.266;2023-02-15T14:15:41;19.55;;;17.58;;
20593;SDS011;10455;48.732;10.266;2023-02-15T14:20:54;17.77;;;16.08;;
20593;SDS011;10455;48.732;10.266;2023-02-15T14:26:03;19.45;;;17.40;;
20593;SDS011;10455;48.732;10.266;2023-02-15T14:31:11;19.30;;;16.63;;
20593;SDS011;10455;48.732;10.266;2023-02-15T14:36:17;16.75;;;14.80;;
20593;SDS011;10455;48.732;10.266;2023-02-15T14:41:21;18.90;;;16.98;;
20593;SDS011;10455;48.732;10.266;2023-02-15T14:46:31;17.02;;;15.27;;
20593;SDS011;10455;48.732;10.266;2023-02-15T14:51:58;15.35;;;14.05;;
20593;SDS011;10455;48.732;10.266;2023-02-15T15:02:41;16.10;;;14.63;;
20593;SDS011;10455;48.732;10.266;2023-02-15T15:07:47;15.18;;;13.85;;
20593;SDS011;10455;48.732;10.266;2023-02-15T15:12:52;16.77;;;15.27;;
20593;SDS011;10455;48.732;10.266;2023-02-15T15:17:56;16.52;;;15.02;;
20593;SDS011;10455;48.732;10.266;2023-02-15T15:34:10;23.23;;;20.73;;
20593;SDS011;10455;48.732;10.266;2023-02-15T15:50:51;25.13;;;21.17;;
20593;SDS011;10455;48.732;10.266;2023-02-15T15:55:57;22.70;;;20.07;;
20593;SDS011;10455;48.732;10.266;2023-02-15T16:01:03;21.00;;;18.77;;
20593;SDS011;10455;48.732;10.266;2023-02-15T16:06:11;21.87;;;19.53;;
20593;SDS011;10455;48.732;10.266;2023-02-15T16:11:16;25.90;;;21.73;;
20593;SDS011;10455;48.732;10.266;2023-02-15T16:16:24;25.87;;;21.07;;
20593;SDS011;10455;48.732;10.266;2023-02-15T16:21:29;40.03;;;29.37;;
20593;SDS011;10455;48.732;10.266;2023-02-15T16:32:03;41.80;;;32.33;;
20593;SDS011;10455;48.732;10.266;2023-02-15T16:37:12;33.63;;;26.23;;
20593;SDS011;10455;48.732;10.266;2023-02-15T16:42:16;30.20;;;24.70;;
20593;SDS011;10455;48.732;10.266;2023-02-15T16:47:20;33.47;;;27.53;;
20593;SDS011;10455;48.732;10.266;2023-02-15T16:52:25;34.20;;;27.93;;
20593;SDS011;10455;48.732;10.266;2023-02-15T16:57:31;41.27;;;30.97;;
20593;SDS011;10455;48.732;10.266;2023-02-15T17:02:35;39.80;;;30.33;;
20593;SDS011;10455;48.732;10.266;2023-02-15T17:07:38;37.70;;;28.03;;
20593;SDS011;10455;48.732;10.266;2023-02-15T17:12:45;55.03;;;38.30;;
20593;SDS011;10455;48.732;10.266;2023-02-15T17:17:50;56.57;;;36.40;;
20593;SDS011;10455;48.732;10.266;2023-02-15T17:22:52;66.33;;;36.50;;
20593;SDS011;10455;48.732;10.266;2023-02-15T17:27:58;104.23;;;58.17;;
20593;SDS011;10455;48.732;10.266;2023-02-15T17:33:00;132.53;;;73.37;;
20593;SDS011;10455;48.732;10.266;2023-02-15T17:38:05;113.13;;;62.50;;
20593;SDS011;10455;48.732;10.266;2023-02-15T17:43:17;83.87;;;49.40;;
20593;SDS011;10455;48.732;10.266;2023-02-15T17:48:20;92.00;;;53.17;;
20593;SDS011;10455;48.732;10.266;2023-02-15T17:53:23;76.50;;;45.93;;
20593;SDS011;10455;48.732;10.266;2023-02-15T17:58:27;115.30;;;68.47;;
20593;SDS011;10455;48.732;10.266;2023-02-15T18:03:32;86.93;;;53.93;;
20593;SDS011;10455;48.732;10.266;2023-02-15T18:08:57;52.70;;;33.83;;
20593;SDS011;10455;48.732;10.266;2023-02-15T18:14:18;56.53;;;35.83;;
20593;SDS011;10455;48.732;10.266;2023-02-15T18:19:20;54.77;;;35.53;;
20593;SDS011;10455;48.732;10.266;2023-02-15T18:24:25;80.23;;;49.33;;
20593;SDS011;10455;48.732;10.266;2023-02-15T18:29:28;200.00;;;110.07;;
20593;SDS011;10455;48.732;10.266;2023-02-15T18:34:31;64.07;;;38.50;;
20593;SDS011;10455;48.732;10.266;2023-02-15T18:39:37;50.57;;;33.73;;
20593;SDS011;10455;48.732;10.266;2023-02-15T18:44:44;50.17;;;33.50;;
20593;SDS011;10455;48.732;10.266;2023-02-15T18:49:46;49.87;;;33.30;;
20593;SDS011;10455;48.732;10.266;2023-02-15T18:54:48;41.07;;;28.40;;
20593;SDS011;10455;48.732;10.266;2023-02-15T18:59:54;41.10;;;29.23;;
20593;SDS011;10455;48.732;10.266;2023-02-15T19:04:56;54.40;;;35.57;;
20593;SDS011;10455;48.732;10.266;2023-02-15T19:09:58;176.30;;;82.57;;
20593;SDS011;10455;48.732;10.266;2023-02-15T19:15:02;170.67;;;71.03;;
20593;SDS011;10455;48.732;10.266;2023-02-15T19:20:05;93.00;;;48.67;;
20593;SDS011;10455;48.732;10.266;2023-02-15T19:25:12;86.77;;;45.80;;
20593;SDS011;10455;48.732;10.266;2023-02-15T19:30:17;98.93;;;52.03;;
20593;SDS011;10455;48.732;10.266;2023-02-15T19:35:22;152.87;;;62.70;;
20593;SDS011;10455;48.732;10.266;2023-02-15T19:40:26;107.67;;;53.23;;
20593;SDS011;10455;48.732;10.266;2023-02-15T19:45:31;92.40;;;50.17;;
20593;SDS011;10455;48.732;10.266;2023-02-15T19:50:33;83.20;;;46.80;;
20593;SDS011;10455;48.732;10.266;2023-02-15T19:55:35;68.23;;;39.70;;
20593;SDS011;10455;48.732;10.266;2023-02-15T20:00:38;81.53;;;45.17;;
20593;SDS011;10455;48.732;10.266;2023-02-15T20:05:40;106.50;;;49.43;;
20593;SDS011;10455;48.732;10.266;2023-02-15T20:10:43;113.10;;;50.17;;
20593;SDS011;10455;48.732;10.266;2023-02-15T20:15:47;106.87;;;51.03;;
20593;SDS011;10455;48.732;10.266;2023-02-15T20:20:50;134.37;;;60.73;;
20593;SDS011;10455;48.732;10.266;2023-02-15T20:25:53;104.47;;;51.77;;
20593;SDS011;10455;48.732;10.266;2023-02-15T20:30:59;90.03;;;49.37;;
20593;SDS011;10455;48.732;10.266;2023-02-15T20:36:01;60.37;;;38.77;;
20593;SDS011;10455;48.732;10.266;2023-02-15T20:41:04;63.40;;;41.10;;
20593;SDS011;10455;48.732;10.266;2023-02-15T20:46:29;63.17;;;39.17;;
20593;SDS011;10455;48.732;10.266;2023-02-15T20:51:31;64.30;;;40.23;;
20593;SDS011;10455;48.732;10.266;2023-02-15T20:56:32;56.83;;;36.07;;
20593;SDS011;10455;48.732;10.266;2023-02-15T21:01:39;51.30;;;33.73;;
20593;SDS011;10455;48.732;10.266;2023-02-15T21:06:40;48.20;;;34.57;;
20593;SDS011;10455;48.732;10.266;2023-02-15T21:11:43;50.43;;;33.03;;
20593;SDS011;10455;48.732;10.266;2023-02-15T21:16:47;215.97;;;90.57;;
20593;SDS011;10455;48.732;10.266;2023-02-15T21:21:51;116.63;;;55.27;;
20593;SDS011;10455;48.732;10.266;2023-02-15T21:26:54;66.17;;;36.97;;
20593;SDS011;10455;48.732;10.266;2023-02-15T21:31:59;73.63;;;32.97;;
20593;SDS011;10455;48.732;10.266;2023-02-15T21:37:02;46.43;;;32.03;;
20593;SDS011;10455;48.732;10.266;2023-02-15T21:42:05;49.43;;;29.53;;
20593;SDS011;10455;48.732;10.266;2023-02-15T21:47:29;44.73;;;30.63;;
20593;SDS011;10455;48.732;10.266;2023-02-15T21:52:49;44.57;;;31.93;;
20593;SDS011;10455;48.732;10.266;2023-02-15T21:57:52;40.20;;;28.20;;
20593;SDS011;10455;48.732;10.266;2023-02-15T22:02:55;41.37;;;28.17;;
20593;SDS011;10455;48.732;10.266;2023-02-15T22:07:59;32.07;;;23.57;;
20593;SDS011;10455;48.732;10.266;2023-02-15T22:13:02;26.43;;;20.40;;
20593;SDS011;10455;48.732;10.266;2023-02-15T22:18:07;31.57;;;24.17;;
20593;SDS011;10455;48.732;10.266;2023-02-15T22:23:19;30.23;;;22.77;;
20593;SDS011;10455;48.732;10.266;2023-02-15T22:28:22;36.80;;;26.80;;
20593;SDS011;10455;48.732;10.266;2023-02-15T22:33:29;36.03;;;25.83;;
20593;SDS011;10455;48.732;10.266;2023-02-15T22:38:32;32.67;;;23.37;;
20593;SDS011;10455;48.732;10.266;2023-02-15T22:43:35;30.27;;;22.97;;
20593;SDS011;10455;48.732;10.266;2023-02-15T22:48:40;34.80;;;23.80;;
20593;SDS011;10455;48.732;10.266;2023-02-15T22:53:42;32.50;;;24.13;;
20593;SDS011;10455;48.732;10.266;2023-02-15T22:58:44;32.43;;;24.07;;
20593;SDS011;10455;48.732;10.266;2023-02-15T23:03:50;38.70;;;29.73;;
20593;SDS011;10455;48.732;10.266;2023-02-15T23:08:52;31.60;;;23.93;;
20593;SDS011;10455;48.732;10.266;2023-02-15T23:13:54;31.17;;;22.53;;
20593;SDS011;10455;48.732;10.266;2023-02-15T23:18:57;28.70;;;21.97;;
20593;SDS011;10455;48.732;10.266;2023-02-15T23:24:00;27.83;;;21.73;;
20593;SDS011;10455;48.732;10.266;2023-02-15T23:29:15;27.37;;;22.03;;
20593;SDS011;10455;48.732;10.266;2023-02-15T23:34:20;28.93;;;22.83;;
20593;SDS011;10455;48.732;10.266;2023-02-15T23:39:25;30.70;;;22.50;;
20593;SDS011;10455;48.732;10.266;2023-02-15T23:44:45;25.60;;;21.17;;
20593;SDS011;10455;48.732;10.266;2023-02-15T23:49:50;26.63;;;21.90;;
20593;SDS011;10455;48.732;10.266;2023-02-15T23:54:51;29.97;;;22.87;;
20593;SDS011;10455;48.732;10.266;2023-02-15T23:59:53;25.57;;;20.53;;
